Time;durP1;ratioP1;P1;durP2;ratioP2;P2;SDS_P1;SDS_P2;PMS_P1;PMS_P2;Temp;Humidity;BMP_temperature;BMP_pressure;BME280_temperature;BME280_humidity;BME280_pressure;Samples;Min_cycle;Max_cycle;Signal;HPM_P1;HPM_P2
2022/03/07 00:00:21;;;;;;;15.00;6.97;;;;;;;-145.18;100.00;46779.56;4950689;28;20566;-61
2022/03/07 00:02:47;;;;;;;13.03;6.73;;;;;;;-145.18;100.00;46828.38;4949851;28;20049;-61
2022/03/07 00:05:15;;;;;;;11.27;6.60;;;;;;;-145.18;100.00;46812.75;4951098;28;20050;-61
2022/03/07 00:07:41;;;;;;;10.00;6.35;;;;;;;-145.18;100.00;46801.03;4949745;28;20492;-61
2022/03/07 00:10:08;;;;;;;12.18;7.07;;;;;;;-145.18;100.00;46824.47;4950341;28;20055;-61
2022/03/07 00:12:33;;;;;;;12.87;6.23;;;;;;;-145.18;100.00;46812.75;4949705;28;20071;-61
2022/03/07 00:14:58;;;;;;;12.70;6.50;;;;;;;-145.18;100.00;46820.56;4950085;28;20063;-61
2022/03/07 00:17:24;;;;;;;10.40;6.80;;;;;;;-145.18;100.00;46816.66;4932654;28;20051;-62
2022/03/07 00:19:49;;;;;;;15.33;6.97;;;;;;;-145.18;100.00;46834.25;4949959;28;20057;-62
2022/03/07 00:22:14;;;;;;;10.33;7.17;;;;;;;-145.18;100.00;46828.38;4950753;28;20540;-61
2022/03/07 00:24:40;;;;;;;12.83;6.23;;;;;;;-145.18;100.00;46814.72;4949609;28;20431;-61
2022/03/07 00:27:05;;;;;;;11.10;6.83;;;;;;;-145.18;100.00;46828.38;4949887;28;20039;-62
2022/03/07 00:29:31;;;;;;;15.03;6.87;;;;;;;-145.18;100.00;46816.66;4950027;28;20130;-61
2022/03/07 00:31:57;;;;;;;12.65;6.28;;;;;;;-145.18;100.00;46824.47;4949434;28;20043;-61
2022/03/07 00:34:22;;;;;;;11.97;6.70;;;;;;;-145.18;100.00;46808.84;4950449;28;20081;-62
2022/03/07 00:36:48;;;;;;;10.57;6.93;;;;;;;-145.18;100.00;46836.19;4950070;28;20040;-61
2022/03/07 00:39:13;;;;;;;10.73;6.00;;;;;;;-145.18;100.00;46826.44;4949874;28;20504;-61
2022/03/07 00:41:38;;;;;;;10.30;5.93;;;;;;;-145.18;100.00;46826.44;4949267;28;20039;-61
2022/03/07 00:44:04;;;;;;;9.10;5.87;;;;;;;-145.18;100.00;46808.84;4949775;28;20043;-62
2022/03/07 00:46:29;;;;;;;10.47;6.50;;;;;;;-145.18;100.00;46834.25;4949193;28;20126;-61
2022/03/07 00:48:55;;;;;;;12.83;6.60;;;;;;;-145.18;100.00;46834.25;4950355;28;20070;-61
2022/03/07 00:51:23;;;;;;;12.63;7.07;;;;;;;-145.18;100.00;46836.19;4949322;28;20043;-61
2022/03/07 00:53:48;;;;;;;15.40;6.18;;;;;;;-145.18;100.00;46844.00;4949547;28;20465;-62
2022/03/07 00:56:13;;;;;;;10.87;6.57;;;;;;;-145.18;100.00;46832.28;4949145;28;20122;-62
2022/03/07 00:58:39;;;;;;;11.97;6.73;;;;;;;-145.18;100.00;46847.91;4932066;28;20054;-62
2022/03/07 01:01:04;;;;;;;11.10;6.33;;;;;;;-145.18;100.00;46842.06;4932169;28;20043;-61
2022/03/07 01:03:30;;;;;;;14.47;7.07;;;;;;;-145.18;100.00;46845.97;4948432;28;20083;-62
2022/03/07 01:05:55;;;;;;;9.83;6.00;;;;;;;-145.18;100.00;46818.63;4950209;28;20039;-61
2022/03/07 01:08:21;;;;;;;12.70;6.20;;;;;;;-145.18;100.00;46818.63;4931938;28;20075;-61
2022/03/07 01:10:47;;;;;;;13.32;6.03;;;;;;;-145.18;100.00;46824.47;4949086;28;20500;-62
2022/03/07 01:13:13;;;;;;;10.03;6.47;;;;;;;-145.18;100.00;46822.53;4949049;28;20050;-62
2022/03/07 01:15:38;;;;;;;14.67;6.80;;;;;;;-145.18;100.00;46832.28;4948926;28;20063;-61
2022/03/07 01:18:04;;;;;;;12.47;6.87;;;;;;;-145.18;100.00;46828.38;4948803;28;20281;-61
2022/03/07 01:20:30;;;;;;;11.83;6.87;;;;;;;-145.18;100.00;46828.38;4949951;28;20130;-61
2022/03/07 01:22:55;;;;;;;11.33;6.30;;;;;;;-145.18;100.00;46801.03;4948951;28;20050;-61
2022/03/07 01:25:20;;;;;;;18.07;6.90;;;;;;;-145.18;100.00;46797.13;4948978;28;20125;-61
2022/03/07 01:27:46;;;;;;;16.70;6.30;;;;;;;-145.18;100.00;46824.47;4948498;28;20043;-61
2022/03/07 01:30:11;;;;;;;10.73;6.83;;;;;;;-145.18;100.00;46783.47;4949086;28;20062;-62
2022/03/07 01:32:37;;;;;;;12.53;6.63;;;;;;;-145.18;100.00;46769.78;4948536;28;20070;-62
2022/03/07 01:35:04;;;;;;;9.97;6.67;;;;;;;-145.18;100.00;46793.22;4949604;28;20523;-61
2022/03/07 01:37:30;;;;;;;11.57;6.65;;;;;;;-145.18;100.00;46777.59;4948354;28;20047;-61
2022/03/07 01:39:55;;;;;;;10.50;6.37;;;;;;;-145.18;100.00;46761.97;4949032;28;20085;-61
2022/03/07 01:42:21;;;;;;;11.87;6.70;;;;;;;-145.18;100.00;46763.91;4949009;28;20098;-61
2022/03/07 01:44:46;;;;;;;12.47;6.70;;;;;;;-145.18;100.00;46752.19;4948818;28;20396;-61
2022/03/07 01:47:12;;;;;;;12.43;6.83;;;;;;;-145.18;100.00;46769.78;4948685;28;20044;-62
2022/03/07 01:49:37;;;;;;;12.23;6.97;;;;;;;-145.18;100.00;46752.19;4948970;28;20039;-61
2022/03/07 01:52:03;;;;;;;11.37;6.77;;;;;;;-145.18;100.00;46750.25;4948684;28;20070;-61
2022/03/07 01:54:29;;;;;;;11.75;6.82;;;;;;;-145.18;100.00;46715.09;4948862;28;20416;-61
2022/03/07 01:56:55;;;;;;;13.67;7.63;;;;;;;-145.18;100.00;46730.72;4948721;28;20035;-61
2022/03/07 01:59:28;;;;;;;13.87;7.30;;;;;;;-145.18;100.00;46738.53;4948946;28;20110;-61
2022/03/07 02:01:55;;;;;;;11.52;7.45;;;;;;;-145.18;100.00;46719.00;4948408;28;20122;-61
2022/03/07 02:04:21;;;;;;;13.32;6.78;;;;;;;-145.18;100.00;46720.94;4948321;28;20585;-61
2022/03/07 02:06:47;;;;;;;13.35;6.72;;;;;;;-145.18;100.00;46713.13;4948406;28;20058;-61
2022/03/07 02:09:14;;;;;;;14.50;7.68;;;;;;;-145.18;100.00;46695.56;4949421;28;20050;-61
2022/03/07 02:11:39;;;;;;;8.82;6.60;;;;;;;-145.18;100.00;46693.59;4948271;28;20051;-61
2022/03/07 02:14:22;;;;;;;13.53;6.80;;;;;;;-145.18;100.00;46697.50;4948753;28;20459;-61
2022/03/07 02:16:49;;;;;;;17.02;8.50;;;;;;;-145.18;100.00;46709.22;4948384;28;20126;-61
2022/03/07 02:19:15;;;;;;;14.25;7.60;;;;;;;-145.18;100.00;46699.47;4949036;28;20105;-61
2022/03/07 02:21:44;;;;;;;16.93;7.73;;;;;;;-145.18;100.00;46693.59;4948309;28;20778;-61
2022/03/07 02:24:10;;;;;;;12.45;7.70;;;;;;;-145.18;100.00;46681.88;4948873;28;20036;-61
2022/03/07 02:26:35;;;;;;;18.07;9.07;;;;;;;-145.18;100.00;46687.75;4948223;28;20051;-61
2022/03/07 02:29:01;;;;;;;15.13;7.50;;;;;;;-145.18;100.00;46676.03;4948426;28;20563;-61
2022/03/07 02:31:27;;;;;;;11.07;7.70;;;;;;;-145.18;100.00;46674.06;4948211;28;20039;-62
2022/03/07 02:33:52;;;;;;;12.03;7.53;;;;;;;-145.18;100.00;46664.31;4949169;28;20036;-61
2022/03/07 02:36:18;;;;;;;12.83;7.33;;;;;;;-145.18;100.00;46654.53;4949209;28;20043;-61
2022/03/07 02:38:43;;;;;;;12.67;7.40;;;;;;;-145.18;100.00;46656.50;4951585;28;20036;-61
2022/03/07 02:41:08;;;;;;;13.73;7.13;;;;;;;-145.18;100.00;46656.50;4952262;28;20027;-61
2022/03/07 02:43:34;;;;;;;14.33;8.07;;;;;;;-145.18;100.00;46679.94;4950917;28;20129;-62
2022/03/07 02:46:01;;;;;;;16.07;7.13;;;;;;;-145.18;100.00;46656.50;4952832;28;20046;-61
2022/03/07 02:48:27;;;;;;;12.50;7.68;;;;;;;-145.18;100.00;46672.13;4951311;28;20468;-61
2022/03/07 02:50:53;;;;;;;14.00;7.63;;;;;;;-145.18;100.00;46668.22;4951977;28;20062;-61
2022/03/07 02:53:18;;;;;;;13.02;7.68;;;;;;;-145.18;100.00;46644.78;4951452;28;20500;-61
2022/03/07 02:55:44;;;;;;;13.93;7.40;;;;;;;-145.18;100.00;46644.78;4951647;28;20042;-61
2022/03/07 02:58:09;;;;;;;14.70;8.37;;;;;;;-145.18;100.00;46648.69;4951505;28;20475;-61
2022/03/07 03:03:10;;;;;;;13.88;7.05;;;;;;;-145.18;100.00;46650.63;5267339;23;20048;-62
2022/03/07 03:05:35;;;;;;;13.50;7.53;;;;;;;-145.18;100.00;46640.88;4932163;29;20039;-62
2022/03/07 03:08:00;;;;;;;13.60;7.67;;;;;;;-145.18;100.00;46650.63;4932041;29;20051;-62
2022/03/07 03:10:26;;;;;;;12.17;7.57;;;;;;;-145.18;100.00;46652.59;4932600;29;20044;-62
2022/03/07 03:12:52;;;;;;;17.80;8.03;;;;;;;-145.18;100.00;46646.72;4914680;29;20040;-62
2022/03/07 03:15:17;;;;;;;15.60;8.30;;;;;;;-145.18;100.00;46650.63;4932560;29;20043;-62
2022/03/07 03:17:45;;;;;;;13.37;8.43;;;;;;;-145.18;100.00;46654.53;4932074;29;20091;-62
2022/03/07 03:20:12;;;;;;;13.25;7.57;;;;;;;-145.18;100.00;46646.72;4932293;29;20130;-62
2022/03/07 03:22:38;;;;;;;18.95;7.93;;;;;;;-145.18;100.00;46664.31;4932537;29;20055;-62
2022/03/07 03:25:06;;;;;;;15.73;8.15;;;;;;;-145.18;100.00;46654.53;4931887;29;20044;-62
2022/03/07 03:27:32;;;;;;;16.00;8.02;;;;;;;-145.18;100.00;46652.59;4931760;29;20047;-62
2022/03/07 03:29:57;;;;;;;12.77;7.40;;;;;;;-145.18;100.00;46636.94;4932148;29;20515;-62
2022/03/07 03:32:25;;;;;;;13.67;8.53;;;;;;;-145.18;100.00;46640.88;4931766;29;20048;-62
2022/03/07 03:34:52;;;;;;;14.00;8.43;;;;;;;-145.18;100.00;46635.00;4932218;29;20051;-62
2022/03/07 03:37:18;;;;;;;11.38;7.82;;;;;;;-145.18;100.00;46625.22;4931464;29;20054;-62
2022/03/07 03:39:43;;;;;;;14.50;7.87;;;;;;;-145.18;100.00;46633.06;4932520;29;20048;-62
2022/03/07 03:42:08;;;;;;;19.73;8.27;;;;;;;-145.18;100.00;46636.94;4929920;29;20044;-62
2022/03/07 03:44:34;;;;;;;11.80;8.00;;;;;;;-145.18;100.00;46640.88;4931976;29;20259;-62
2022/03/07 03:46:59;;;;;;;13.30;7.60;;;;;;;-145.18;100.00;46625.22;4931419;29;20602;-62
2022/03/07 03:49:25;;;;;;;15.83;8.10;;;;;;;-145.18;100.00;46625.22;4930642;29;20044;-62
2022/03/07 03:51:50;;;;;;;18.67;9.13;;;;;;;-145.18;100.00;46660.41;4931362;29;20134;-62
2022/03/07 03:54:16;;;;;;;15.43;7.77;;;;;;;-145.18;100.00;46658.44;4932199;29;20047;-62
2022/03/07 03:56:41;;;;;;;11.30;7.27;;;;;;;-145.18;100.00;46627.19;4931720;29;20106;-62
2022/03/07 03:59:06;;;;;;;15.00;7.73;;;;;;;-145.18;100.00;46627.19;4931013;29;20043;-61
2022/03/07 04:01:32;;;;;;;11.97;7.10;;;;;;;-145.18;100.00;46652.59;4925855;29;20048;-62
2022/03/07 04:03:57;;;;;;;15.80;8.03;;;;;;;-145.18;100.00;46642.81;4911940;29;20382;-62
2022/03/07 04:06:23;;;;;;;13.33;8.07;;;;;;;-145.18;100.00;46636.94;4911679;29;20044;-62
2022/03/07 04:08:50;;;;;;;14.37;7.63;;;;;;;-145.18;100.00;46629.13;4912839;29;20036;-62
2022/03/07 04:11:16;;;;;;;10.85;7.47;;;;;;;-145.18;100.00;46633.06;4911813;29;20052;-62
2022/03/07 04:13:42;;;;;;;17.08;7.70;;;;;;;-145.18;100.00;46635.00;4911987;29;20052;-62
2022/03/07 04:16:07;;;;;;;13.60;8.17;;;;;;;-145.18;100.00;46635.00;4895253;29;20043;-62
2022/03/07 04:18:33;;;;;;;23.33;9.73;;;;;;;-145.18;100.00;46627.19;4911860;29;20040;-62
2022/03/07 04:20:58;;;;;;;12.93;8.80;;;;;;;-145.18;100.00;46625.22;4912073;29;20095;-62
2022/03/07 04:23:24;;;;;;;15.53;8.30;;;;;;;-145.18;100.00;46623.28;4911928;29;20102;-61
2022/03/07 04:25:49;;;;;;;14.47;8.50;;;;;;;-145.18;100.00;46625.22;4912087;29;20036;-62
2022/03/07 04:28:15;;;;;;;17.97;9.00;;;;;;;-145.18;100.00;46627.19;4911420;29;20441;-62
2022/03/07 04:30:40;;;;;;;13.10;8.90;;;;;;;-145.18;100.00;46636.94;4912050;29;20044;-61
2022/03/07 04:33:08;;;;;;;15.30;10.40;;;;;;;-145.18;100.00;46625.22;4911104;29;20044;-62
2022/03/07 04:35:33;;;;;;;18.63;9.45;;;;;;;-145.18;100.00;46631.09;4911826;29;20094;-62
2022/03/07 04:38:00;;;;;;;14.37;9.13;;;;;;;-145.18;100.00;46623.28;4912068;29;20044;-62
2022/03/07 04:40:25;;;;;;;19.02;9.02;;;;;;;-145.18;100.00;46638.91;4912116;29;20123;-61
2022/03/07 04:42:52;;;;;;;15.37;9.03;;;;;;;-145.18;100.00;46621.31;4911137;29;20518;-62
2022/03/07 04:45:18;;;;;;;19.30;10.75;;;;;;;-145.18;100.00;46627.19;4911981;29;20074;-62
2022/03/07 04:47:43;;;;;;;20.25;9.90;;;;;;;-145.18;100.00;46631.09;4911104;29;20079;-62
2022/03/07 04:50:10;;;;;;;13.70;9.07;;;;;;;-145.18;100.00;46627.19;4911650;29;20409;-62
2022/03/07 04:52:35;;;;;;;15.50;8.60;;;;;;;-145.18;100.00;46660.41;4911121;29;20052;-62
2022/03/07 04:55:01;;;;;;;16.87;9.87;;;;;;;-145.18;100.00;46656.50;4911873;29;20103;-62
2022/03/07 04:57:26;;;;;;;18.80;10.03;;;;;;;-145.18;100.00;46660.41;4910989;29;20044;-62
2022/03/07 04:59:52;;;;;;;14.67;9.63;;;;;;;-145.18;100.00;46625.22;4911350;29;20040;-62
2022/03/07 05:06:22;;;;;;;;;;;;;;;-145.18;100.00;46633.06;4909146;29;20444;-62
2022/03/07 05:27:45;;;;;;;18.92;9.27;;;;;;;-145.18;100.00;46660.41;4888395;29;20054;-62
